createdAt,value
2022-09-21T00:00:00.490Z,3.20
2022-09-21T00:01:07.092Z,3.20
2022-09-21T00:02:00.407Z,3.20
2022-09-21T00:03:00.285Z,3.20
2022-09-21T00:04:01.346Z,3.20
2022-09-21T00:05:00.303Z,3.20
2022-09-21T00:06:01.133Z,3.20
2022-09-21T00:07:00.311Z,3.20
2022-09-21T00:08:01.145Z,3.20
2022-09-21T00:09:00.361Z,3.20
2022-09-21T00:10:00.301Z,3.20
2022-09-21T00:11:00.460Z,3.20
2022-09-21T00:12:00.425Z,3.20
2022-09-21T00:13:00.317Z,3.20
2022-09-21T00:14:01.934Z,3.20
2022-09-21T00:15:00.287Z,3.20
2022-09-21T00:16:00.423Z,3.20
2022-09-21T00:17:00.277Z,3.20
2022-09-21T00:18:00.281Z,3.20
2022-09-21T00:19:00.455Z,3.20
2022-09-21T00:20:00.516Z,3.20
2022-09-21T00:21:00.629Z,3.20
2022-09-21T00:22:00.311Z,3.20
2022-09-21T00:23:00.314Z,3.20
2022-09-21T00:24:00.498Z,3.20
2022-09-21T00:25:00.859Z,3.20
2022-09-21T00:26:09.704Z,3.20
2022-09-21T00:27:00.284Z,3.20
2022-09-21T00:28:00.522Z,3.20
2022-09-21T00:29:01.513Z,3.20
2022-09-21T00:30:00.797Z,3.20
2022-09-21T00:31:01.300Z,3.20
2022-09-21T00:32:00.506Z,3.20
2022-09-21T00:33:01.537Z,3.20
2022-09-21T00:34:00.394Z,3.20
2022-09-21T00:35:00.375Z,3.20
2022-09-21T00:36:02.372Z,3.20
2022-09-21T00:37:00.276Z,3.20
2022-09-21T00:38:01.023Z,3.20
2022-09-21T00:39:01.044Z,3.20
2022-09-21T00:40:00.555Z,3.20
2022-09-21T00:41:00.305Z,3.20
2022-09-21T00:42:00.337Z,3.20
2022-09-21T00:43:10.200Z,3.20
2022-09-21T00:44:10.224Z,3.20
2022-09-21T00:45:00.393Z,3.20
2022-09-21T00:46:02.560Z,3.30
2022-09-21T00:47:10.213Z,3.30
2022-09-21T00:48:00.553Z,3.30
2022-09-21T00:49:00.438Z,3.30
2022-09-21T00:50:03.475Z,3.30
2022-09-21T00:51:05.131Z,3.30
2022-09-21T00:52:02.312Z,3.30
2022-09-21T00:53:02.116Z,3.30
2022-09-21T00:54:03.456Z,3.30
2022-09-21T00:55:04.866Z,3.30
2022-09-21T00:56:01.680Z,3.30
2022-09-21T00:57:00.518Z,3.30
2022-09-21T00:58:04.641Z,3.30
2022-09-21T00:59:00.348Z,3.30
2022-09-21T01:00:01.383Z,3.30
2022-09-21T01:01:00.486Z,3.30
2022-09-21T01:02:00.747Z,3.30
2022-09-21T01:03:00.301Z,3.30
2022-09-21T01:04:00.423Z,3.30
2022-09-21T01:05:01.773Z,3.30
2022-09-21T01:06:00.284Z,3.30
2022-09-21T01:07:01.954Z,3.30
2022-09-21T01:08:01.147Z,3.30
2022-09-21T01:09:00.503Z,3.30
2022-09-21T01:10:01.827Z,3.30
2022-09-21T01:11:01.296Z,3.30
2022-09-21T01:12:00.261Z,3.30
2022-09-21T01:13:09.538Z,3.30
2022-09-21T01:14:10.206Z,3.30
2022-09-21T01:15:10.318Z,3.30
2022-09-21T01:16:07.721Z,3.80
2022-09-21T01:17:05.989Z,3.80
2022-09-21T01:18:10.128Z,3.80
2022-09-21T01:19:10.356Z,3.80
2022-09-21T01:20:01.260Z,3.80
2022-09-21T01:21:09.315Z,3.80
2022-09-21T01:22:10.213Z,3.80
2022-09-21T01:23:10.237Z,3.80
2022-09-21T01:24:07.697Z,3.80
2022-09-21T01:25:00.271Z,3.80
2022-09-21T01:26:01.300Z,3.80
2022-09-21T01:27:10.217Z,3.80
2022-09-21T01:28:00.281Z,3.80
2022-09-21T01:29:03.595Z,3.80
2022-09-21T01:30:03.293Z,3.80
2022-09-21T01:31:03.290Z,3.80
2022-09-21T01:32:10.221Z,3.80
2022-09-21T01:33:05.279Z,3.80
2022-09-21T01:34:05.104Z,3.80
2022-09-21T01:35:05.088Z,3.80
2022-09-21T01:36:03.148Z,3.80
2022-09-21T01:37:03.553Z,3.80
2022-09-21T01:38:02.909Z,3.80
2022-09-21T01:39:04.479Z,3.80
2022-09-21T01:40:03.613Z,3.80
2022-09-21T01:41:03.603Z,3.80
2022-09-21T01:42:02.502Z,3.80
2022-09-21T01:43:01.367Z,3.80
2022-09-21T01:44:07.051Z,3.80
2022-09-21T01:45:02.357Z,3.80
2022-09-21T01:46:01.813Z,4.00
2022-09-21T01:47:01.587Z,4.00
2022-09-21T01:48:00.442Z,4.00
2022-09-21T01:49:05.637Z,4.00
2022-09-21T01:50:01.893Z,4.00
2022-09-21T01:51:01.925Z,4.00
2022-09-21T01:52:05.381Z,4.00
2022-09-21T01:53:05.917Z,4.00
2022-09-21T01:54:04.075Z,4.00
2022-09-21T01:55:03.748Z,4.00
2022-09-21T01:56:04.101Z,4.00
2022-09-21T01:57:05.578Z,4.00
2022-09-21T01:58:08.460Z,4.00
2022-09-21T01:59:06.221Z,4.00
2022-09-21T02:00:00.652Z,4.00
2022-09-21T02:01:01.773Z,4.00
2022-09-21T02:02:04.660Z,4.00
2022-09-21T02:03:00.292Z,4.00
2022-09-21T02:04:03.205Z,4.00
2022-09-21T02:05:01.105Z,4.00
2022-09-21T02:06:00.662Z,4.00
2022-09-21T02:07:00.348Z,4.00
2022-09-21T02:08:00.558Z,4.00
2022-09-21T02:09:00.311Z,4.00
2022-09-21T02:10:01.363Z,4.00
2022-09-21T02:11:01.323Z,4.00
2022-09-21T02:12:00.441Z,4.00
2022-09-21T02:13:02.434Z,4.00
2022-09-21T02:14:00.288Z,4.00
2022-09-21T02:15:01.699Z,4.00
2022-09-21T02:16:01.363Z,3.60
2022-09-21T02:17:10.231Z,3.60
2022-09-21T02:18:10.258Z,3.60
2022-09-21T02:19:03.589Z,3.60
2022-09-21T02:20:00.295Z,3.60
2022-09-21T02:21:02.538Z,3.60
2022-09-21T02:22:10.209Z,3.60
2022-09-21T02:23:08.896Z,3.60
2022-09-21T02:24:10.224Z,3.60
2022-09-21T02:25:10.225Z,3.60
2022-09-21T02:26:05.495Z,3.60
2022-09-21T02:27:00.247Z,3.60
2022-09-21T02:28:07.520Z,3.60
2022-09-21T02:29:00.276Z,3.60
2022-09-21T02:30:10.255Z,3.60
2022-09-21T02:31:05.317Z,3.60
2022-09-21T02:32:09.056Z,3.60
2022-09-21T02:33:10.197Z,3.60
2022-09-21T02:34:08.648Z,3.60
2022-09-21T02:35:05.079Z,3.60
2022-09-21T02:36:06.302Z,3.60
2022-09-21T02:37:05.119Z,3.60
2022-09-21T02:38:10.230Z,3.60
2022-09-21T02:39:04.495Z,3.60
2022-09-21T02:40:03.336Z,3.60
2022-09-21T02:41:01.282Z,3.60
2022-09-21T02:42:08.177Z,3.60
2022-09-21T02:43:05.038Z,3.60
2022-09-21T02:44:05.606Z,3.60
2022-09-21T02:45:06.539Z,3.60
2022-09-21T02:46:03.674Z,3.40
2022-09-21T02:47:03.769Z,3.40
2022-09-21T02:48:03.186Z,3.40
2022-09-21T02:49:03.289Z,3.40
2022-09-21T02:50:02.909Z,3.40
2022-09-21T02:51:05.936Z,3.40
2022-09-21T02:52:03.905Z,3.40
2022-09-21T02:53:02.784Z,3.40
2022-09-21T02:54:02.523Z,3.40
2022-09-21T02:55:01.257Z,3.40
2022-09-21T02:56:00.630Z,3.40
2022-09-21T02:57:01.349Z,3.40
2022-09-21T02:58:02.807Z,3.40
2022-09-21T02:59:02.011Z,3.40
2022-09-21T03:00:00.625Z,3.40
2022-09-21T03:01:00.378Z,3.40
2022-09-21T03:02:00.422Z,3.40
2022-09-21T03:03:10.222Z,3.40
2022-09-21T03:04:00.402Z,3.40
2022-09-21T03:05:00.372Z,3.40
2022-09-21T03:06:00.875Z,3.40
2022-09-21T03:07:00.280Z,3.40
2022-09-21T03:08:00.367Z,3.40
2022-09-21T03:09:00.381Z,3.40
2022-09-21T03:10:00.328Z,3.40
2022-09-21T03:11:00.286Z,3.40
2022-09-21T03:12:00.408Z,3.40
2022-09-21T03:13:00.298Z,3.40
2022-09-21T03:14:00.783Z,3.40
2022-09-21T03:15:00.282Z,3.40
2022-09-21T03:16:01.477Z,3.40
2022-09-21T03:17:01.171Z,3.40
2022-09-21T03:18:00.328Z,3.40
2022-09-21T03:19:00.333Z,3.40
2022-09-21T03:20:00.430Z,3.40
2022-09-21T03:21:00.298Z,3.40
2022-09-21T03:22:00.297Z,3.40
2022-09-21T03:23:00.706Z,3.40
2022-09-21T03:24:00.400Z,3.40
2022-09-21T03:25:00.265Z,3.40
2022-09-21T03:26:00.291Z,3.40
2022-09-21T03:27:00.284Z,3.40
2022-09-21T03:28:00.398Z,3.40
2022-09-21T03:29:00.277Z,3.40
2022-09-21T03:30:02.488Z,3.40
2022-09-21T03:31:00.435Z,3.40
2022-09-21T03:32:00.403Z,3.40
2022-09-21T03:33:00.272Z,3.40
2022-09-21T03:34:00.291Z,3.40
2022-09-21T03:35:00.282Z,3.40
2022-09-21T03:36:00.360Z,3.40
2022-09-21T03:37:01.400Z,3.40
2022-09-21T03:38:01.051Z,3.40
2022-09-21T03:39:00.279Z,3.40
2022-09-21T03:40:00.474Z,3.40
2022-09-21T03:41:00.265Z,3.40
2022-09-21T03:42:00.293Z,3.40
2022-09-21T03:43:00.288Z,3.40
2022-09-21T03:44:00.415Z,3.40
2022-09-21T03:45:00.289Z,3.40
2022-09-21T03:46:00.321Z,3.80
2022-09-21T03:47:00.738Z,3.80
2022-09-21T03:48:00.473Z,3.80
2022-09-21T03:49:00.623Z,3.80
2022-09-21T03:50:00.501Z,3.80
2022-09-21T03:51:00.267Z,3.80
2022-09-21T03:52:00.346Z,3.80
2022-09-21T03:53:00.279Z,3.80
2022-09-21T03:54:00.266Z,3.80
2022-09-21T03:55:00.291Z,3.80
2022-09-21T03:56:00.381Z,3.80
2022-09-21T03:57:00.266Z,3.80
2022-09-21T03:58:00.313Z,3.80
2022-09-21T03:59:00.476Z,3.80
2022-09-21T04:00:02.236Z,3.80
2022-09-21T04:01:01.734Z,3.80
2022-09-21T04:02:00.297Z,3.80
2022-09-21T04:03:00.324Z,3.80
2022-09-21T04:04:00.383Z,3.80
2022-09-21T04:05:00.607Z,3.80
2022-09-21T04:06:00.323Z,3.80
2022-09-21T04:07:00.284Z,3.80
2022-09-21T04:08:00.384Z,3.80
2022-09-21T04:09:00.399Z,3.80
2022-09-21T04:10:03.348Z,3.80
2022-09-21T04:11:00.379Z,3.80
2022-09-21T04:12:00.360Z,3.80
2022-09-21T04:13:00.906Z,3.80
2022-09-21T04:14:00.308Z,3.80
2022-09-21T04:15:00.414Z,3.80
2022-09-21T04:16:00.443Z,3.90
2022-09-21T04:17:00.305Z,3.90
2022-09-21T04:18:00.282Z,3.90
2022-09-21T04:19:00.263Z,3.90
2022-09-21T04:20:00.384Z,3.90
2022-09-21T04:21:00.315Z,3.90
2022-09-21T04:22:00.261Z,3.90
2022-09-21T04:23:00.649Z,3.90
2022-09-21T04:24:00.359Z,3.90
2022-09-21T04:25:00.259Z,3.90
2022-09-21T04:26:00.981Z,3.90
2022-09-21T04:27:00.261Z,3.90
2022-09-21T04:28:00.466Z,3.90
2022-09-21T04:29:00.467Z,3.90
2022-09-21T04:30:00.298Z,3.90
2022-09-21T04:31:00.346Z,3.90
2022-09-21T04:32:00.568Z,3.90
2022-09-21T04:33:00.282Z,3.90
2022-09-21T04:34:00.277Z,3.90
2022-09-21T04:35:00.322Z,3.90
2022-09-21T04:36:00.364Z,3.90
2022-09-21T04:37:00.261Z,3.90
2022-09-21T04:38:00.352Z,3.90
2022-09-21T04:39:00.349Z,3.90
2022-09-21T04:40:00.527Z,3.90
2022-09-21T04:41:00.265Z,3.90
2022-09-21T04:42:00.501Z,3.90
2022-09-21T04:43:00.297Z,3.90
2022-09-21T04:44:00.409Z,3.90
2022-09-21T04:45:00.333Z,3.90
2022-09-21T04:46:04.774Z,4.00
2022-09-21T04:47:00.300Z,4.00
2022-09-21T04:48:00.394Z,4.00
2022-09-21T04:49:00.284Z,4.00
2022-09-21T04:50:00.349Z,4.00
2022-09-21T04:51:00.651Z,4.00
2022-09-21T04:52:00.419Z,4.00
2022-09-21T04:53:00.279Z,4.00
2022-09-21T04:54:00.312Z,4.00
2022-09-21T04:55:00.285Z,4.00
2022-09-21T04:56:00.425Z,4.00
2022-09-21T04:57:00.302Z,4.00
2022-09-21T04:58:00.275Z,4.00
2022-09-21T04:59:00.282Z,4.00
2022-09-21T05:00:00.717Z,4.00
2022-09-21T05:01:00.704Z,4.00
2022-09-21T05:02:00.278Z,4.00
2022-09-21T05:03:00.287Z,4.00
2022-09-21T05:04:00.481Z,4.00
2022-09-21T05:05:00.259Z,4.00
2022-09-21T05:06:00.461Z,4.00
2022-09-21T05:07:00.292Z,4.00
2022-09-21T05:08:00.397Z,4.00
2022-09-21T05:09:00.266Z,4.00
2022-09-21T05:10:00.287Z,4.00
2022-09-21T05:11:00.276Z,4.00
2022-09-21T05:12:00.411Z,4.00
2022-09-21T05:13:00.297Z,4.00
2022-09-21T05:14:00.293Z,4.00
2022-09-21T05:15:00.725Z,4.00
2022-09-21T05:16:00.543Z,3.80
2022-09-21T05:17:00.279Z,3.80
2022-09-21T05:18:00.275Z,3.80
2022-09-21T05:19:00.342Z,3.80
2022-09-21T05:20:00.416Z,3.80
2022-09-21T05:21:01.090Z,3.80
2022-09-21T05:22:00.299Z,3.80
2022-09-21T05:23:00.344Z,3.80
2022-09-21T05:24:00.388Z,3.80
2022-09-21T05:25:00.263Z,3.80
2022-09-21T05:26:00.289Z,3.80
2022-09-21T05:27:00.402Z,3.80
2022-09-21T05:28:00.406Z,3.80
2022-09-21T05:29:00.803Z,3.80
2022-09-21T05:30:00.460Z,3.80
2022-09-21T05:31:17.794Z,3.80
2022-09-21T05:32:04.202Z,3.80
2022-09-21T05:33:02.395Z,3.80
2022-09-21T05:34:00.367Z,3.80
2022-09-21T05:35:00.256Z,3.80
2022-09-21T05:36:10.175Z,3.80
2022-09-21T05:37:03.700Z,3.80
2022-09-21T05:38:03.107Z,3.80
2022-09-21T05:39:00.448Z,3.80
2022-09-21T05:40:00.542Z,3.80
2022-09-21T05:41:00.517Z,3.80
2022-09-21T05:42:00.555Z,3.80
2022-09-21T05:43:00.426Z,3.80
2022-09-21T05:44:00.483Z,3.80
2022-09-21T05:45:00.555Z,3.80
2022-09-21T05:46:04.625Z,4.40
2022-09-21T05:47:04.975Z,4.40
2022-09-21T05:48:05.802Z,4.40
2022-09-21T05:49:03.959Z,4.40
2022-09-21T05:50:05.155Z,4.40
2022-09-21T05:51:05.286Z,4.40
2022-09-21T05:52:06.255Z,4.40
2022-09-21T05:53:00.283Z,4.40
2022-09-21T05:54:00.265Z,4.40
2022-09-21T05:55:10.194Z,4.40
2022-09-21T05:56:07.549Z,4.40
2022-09-21T05:57:10.227Z,4.40
2022-09-21T05:58:04.626Z,4.40
2022-09-21T05:59:03.587Z,4.40
2022-09-21T06:00:10.217Z,4.40
2022-09-21T06:01:10.272Z,4.40
2022-09-21T06:02:10.218Z,4.40
2022-09-21T06:03:13.303Z,4.40
2022-09-21T06:04:01.239Z,4.40
2022-09-21T06:05:01.406Z,4.40
2022-09-21T06:06:00.290Z,4.40
2022-09-21T06:07:00.267Z,4.40
2022-09-21T06:08:00.347Z,4.40
2022-09-21T06:09:00.282Z,4.40
2022-09-21T06:10:00.262Z,4.40
2022-09-21T06:11:00.475Z,4.40
2022-09-21T06:12:00.409Z,4.40
2022-09-21T06:13:00.335Z,4.40
2022-09-21T06:14:00.611Z,4.40
2022-09-21T06:15:00.285Z,4.40
2022-09-21T06:16:00.946Z,4.90
2022-09-21T06:17:01.562Z,4.90
2022-09-21T06:18:00.280Z,4.90
2022-09-21T06:19:00.266Z,4.90
2022-09-21T06:20:00.377Z,4.90
2022-09-21T06:21:00.258Z,4.90
2022-09-21T06:22:00.315Z,4.90
2022-09-21T06:23:01.000Z,4.90
2022-09-21T06:24:00.405Z,4.90
2022-09-21T06:25:00.337Z,4.90
2022-09-21T06:26:00.314Z,4.90
2022-09-21T06:27:00.256Z,4.90
2022-09-21T06:28:01.269Z,4.90
2022-09-21T06:29:00.292Z,4.90
2022-09-21T06:30:00.833Z,4.90
2022-09-21T06:31:00.336Z,4.90
2022-09-21T06:32:01.176Z,4.90
2022-09-21T06:33:00.931Z,4.90
2022-09-21T06:34:00.314Z,4.90
2022-09-21T06:35:00.263Z,4.90
2022-09-21T06:36:00.418Z,4.90
2022-09-21T06:37:02.093Z,4.90
2022-09-21T06:38:02.083Z,4.90
2022-09-21T06:39:00.287Z,4.90
2022-09-21T06:40:00.421Z,4.90
2022-09-21T06:41:01.245Z,4.90
2022-09-21T06:42:00.303Z,4.90
2022-09-21T06:43:01.200Z,4.90
2022-09-21T06:44:00.383Z,4.90
2022-09-21T06:45:00.295Z,4.90
2022-09-21T06:46:01.178Z,4.90
2022-09-21T06:47:00.279Z,4.90
2022-09-21T06:48:00.354Z,4.90
2022-09-21T06:49:00.270Z,4.90
2022-09-21T06:50:00.333Z,4.90
2022-09-21T06:51:01.031Z,4.90
2022-09-21T06:52:00.361Z,4.90
2022-09-21T06:53:00.795Z,4.90
2022-09-21T06:54:00.281Z,4.90
2022-09-21T06:55:00.263Z,4.90
2022-09-21T06:56:02.864Z,4.90
2022-09-21T06:57:00.379Z,4.90
2022-09-21T06:58:02.538Z,4.90
2022-09-21T06:59:00.271Z,4.90
2022-09-21T07:00:00.484Z,4.90
2022-09-21T07:01:08.762Z,4.90
2022-09-21T07:02:00.372Z,4.90
2022-09-21T07:03:00.296Z,4.90
2022-09-21T07:04:00.412Z,4.90
2022-09-21T07:05:00.720Z,4.90
2022-09-21T07:06:00.266Z,4.90
2022-09-21T07:07:03.386Z,4.90
2022-09-21T07:08:00.548Z,4.90
2022-09-21T07:10:09.023Z,4.90
2022-09-21T07:11:00.325Z,4.90
2022-09-21T07:12:00.372Z,4.90
2022-09-21T07:13:02.399Z,4.90
2022-09-21T07:14:00.271Z,4.90
2022-09-21T07:15:00.938Z,4.90
2022-09-21T07:16:04.045Z,5.50
2022-09-21T07:17:00.284Z,5.50
2022-09-21T07:18:06.122Z,5.50
2022-09-21T07:19:10.282Z,5.50
2022-09-21T07:20:00.657Z,5.50
2022-09-21T07:21:02.157Z,5.50
2022-09-21T07:22:00.269Z,5.50
2022-09-21T07:23:00.272Z,5.50
2022-09-21T07:24:00.382Z,5.50
2022-09-21T07:25:00.599Z,5.50
2022-09-21T07:26:01.955Z,5.50
2022-09-21T07:27:00.268Z,5.50
2022-09-21T07:28:00.344Z,5.50
2022-09-21T07:29:00.261Z,5.50
2022-09-21T07:30:00.313Z,5.50
2022-09-21T07:31:10.195Z,5.50
2022-09-21T07:32:00.381Z,5.50
2022-09-21T07:33:00.277Z,5.50
2022-09-21T07:34:00.300Z,5.50
2022-09-21T07:35:00.274Z,5.50
2022-09-21T07:36:00.435Z,5.50
2022-09-21T07:37:00.271Z,5.50
2022-09-21T07:38:01.029Z,5.50
2022-09-21T07:39:00.332Z,5.50
2022-09-21T07:40:00.407Z,5.50
2022-09-21T07:41:00.660Z,5.50
2022-09-21T07:42:00.405Z,5.50
2022-09-21T07:43:00.560Z,5.50
2022-09-21T07:44:00.484Z,5.50
2022-09-21T07:45:04.302Z,5.50
2022-09-21T07:46:00.537Z,5.40
2022-09-21T07:47:00.258Z,5.40
2022-09-21T07:48:02.403Z,5.40
2022-09-21T07:49:00.332Z,5.40
2022-09-21T07:50:00.293Z,5.40
2022-09-21T07:51:02.127Z,5.40
2022-09-21T07:52:04.434Z,5.40
2022-09-21T07:53:00.642Z,5.40
2022-09-21T07:54:00.275Z,5.40
2022-09-21T07:55:00.263Z,5.40
2022-09-21T07:56:02.378Z,5.40
2022-09-21T07:57:00.366Z,5.40
2022-09-21T07:58:00.276Z,5.40
2022-09-21T07:59:00.281Z,5.40
2022-09-21T08:00:00.397Z,5.40
2022-09-21T08:01:03.735Z,5.40
2022-09-21T08:02:00.326Z,5.40
2022-09-21T08:03:00.317Z,5.40
2022-09-21T08:04:00.673Z,5.40
2022-09-21T08:05:00.278Z,5.40
2022-09-21T08:06:00.260Z,5.40
2022-09-21T08:07:00.288Z,5.40
2022-09-21T08:08:00.396Z,5.40
2022-09-21T08:09:00.782Z,5.40
2022-09-21T08:10:00.268Z,5.40
2022-09-21T08:11:02.139Z,5.40
2022-09-21T08:12:00.360Z,5.40
2022-09-21T08:13:00.404Z,5.40
2022-09-21T08:14:01.199Z,5.40
2022-09-21T08:15:00.331Z,5.40
2022-09-21T08:16:01.253Z,6.00
2022-09-21T08:17:00.533Z,6.00
2022-09-21T08:18:00.256Z,6.00
2022-09-21T08:19:00.261Z,6.00
2022-09-21T08:21:00.336Z,6.00
2022-09-21T08:22:01.891Z,6.00
2022-09-21T08:23:00.292Z,6.00
2022-09-21T08:24:00.399Z,6.00
2022-09-21T08:25:00.322Z,6.00
2022-09-21T08:26:02.084Z,6.00
2022-09-21T08:27:00.303Z,6.00
2022-09-21T08:28:00.436Z,6.00
2022-09-21T08:29:00.324Z,6.00
2022-09-21T08:30:00.298Z,6.00
2022-09-21T08:31:00.915Z,6.00
2022-09-21T08:32:00.628Z,6.00
2022-09-21T08:33:00.283Z,6.00
2022-09-21T08:34:00.336Z,6.00
2022-09-21T08:35:00.262Z,6.00
2022-09-21T08:36:01.084Z,6.00
2022-09-21T08:37:00.294Z,6.00
2022-09-21T08:38:00.358Z,6.00
2022-09-21T08:39:00.316Z,6.00
2022-09-21T08:40:00.825Z,6.00
2022-09-21T08:41:01.415Z,6.00
2022-09-21T08:42:07.694Z,6.00
2022-09-21T08:43:08.395Z,6.00
2022-09-21T08:44:08.628Z,6.00
2022-09-21T08:45:01.891Z,6.00
2022-09-21T08:46:02.830Z,6.50
2022-09-21T08:47:03.772Z,6.50
2022-09-21T08:48:03.581Z,6.50
2022-09-21T08:49:00.257Z,6.50
2022-09-21T08:50:02.661Z,6.50
2022-09-21T08:51:03.929Z,6.50
2022-09-21T08:52:02.678Z,6.50
2022-09-21T08:53:04.342Z,6.50
2022-09-21T08:54:06.117Z,6.50
2022-09-21T08:55:08.781Z,6.50
2022-09-21T08:56:00.479Z,6.50
2022-09-21T08:57:05.463Z,6.50
2022-09-21T08:58:00.311Z,6.50
2022-09-21T08:59:00.335Z,6.50
2022-09-21T09:00:00.821Z,6.50
2022-09-21T09:01:03.605Z,6.50
2022-09-21T09:02:01.369Z,6.50
2022-09-21T09:03:07.695Z,6.50
2022-09-21T09:04:07.996Z,6.50
2022-09-21T09:05:03.633Z,6.50
2022-09-21T09:06:06.715Z,6.50
2022-09-21T09:07:08.875Z,6.50
2022-09-21T09:08:07.998Z,6.50
2022-09-21T09:09:00.292Z,6.50
2022-09-21T09:10:10.208Z,6.50
2022-09-21T09:11:10.181Z,6.50
2022-09-21T09:12:11.185Z,6.50
2022-09-21T09:13:01.283Z,6.50
2022-09-21T09:14:03.625Z,6.50
2022-09-21T09:15:07.903Z,6.50
2022-09-21T09:16:06.306Z,5.40
2022-09-21T09:17:10.177Z,5.40
2022-09-21T09:18:07.334Z,5.40
2022-09-21T09:19:10.189Z,5.40
2022-09-21T09:20:10.199Z,5.40
2022-09-21T09:21:04.033Z,5.40
2022-09-21T09:22:02.874Z,5.40
2022-09-21T09:23:00.260Z,5.40
2022-09-21T09:24:05.146Z,5.40
2022-09-21T09:25:03.506Z,5.40
2022-09-21T09:26:03.098Z,5.40
2022-09-21T09:27:05.155Z,5.40
2022-09-21T09:28:04.742Z,5.40
2022-09-21T09:29:02.142Z,5.40
2022-09-21T09:30:04.249Z,5.40
2022-09-21T09:31:04.175Z,5.40
2022-09-21T09:32:00.669Z,5.40
2022-09-21T09:33:05.337Z,5.40
2022-09-21T09:34:01.280Z,5.40
2022-09-21T09:35:10.193Z,5.40
2022-09-21T09:36:03.436Z,5.40
2022-09-21T09:37:09.394Z,5.40
2022-09-21T09:38:04.496Z,5.40
2022-09-21T09:39:03.913Z,5.40
2022-09-21T09:40:00.617Z,5.40
2022-09-21T09:41:03.599Z,5.40
2022-09-21T09:42:07.864Z,5.40
2022-09-21T09:43:03.950Z,5.40
2022-09-21T09:44:00.264Z,5.40
2022-09-21T09:45:10.187Z,5.40
2022-09-21T09:46:09.054Z,5.90
2022-09-21T09:47:01.371Z,5.90
2022-09-21T09:48:10.188Z,5.90
2022-09-21T09:49:00.307Z,5.90
2022-09-21T09:50:04.527Z,5.90
2022-09-21T09:51:00.472Z,5.90
2022-09-21T09:52:00.522Z,5.90
2022-09-21T09:53:10.184Z,5.90
2022-09-21T09:54:00.272Z,5.90
2022-09-21T09:55:10.202Z,5.90
2022-09-21T09:56:00.393Z,5.90
2022-09-21T09:57:02.936Z,5.90
2022-09-21T09:58:00.777Z,5.90
2022-09-21T09:59:03.765Z,5.90
2022-09-21T10:00:02.508Z,5.90
2022-09-21T10:01:00.297Z,5.90
2022-09-21T10:02:02.089Z,5.90
2022-09-21T10:03:00.300Z,5.90
2022-09-21T10:04:05.214Z,5.90
2022-09-21T10:05:01.287Z,5.90
2022-09-21T10:06:00.662Z,5.90
2022-09-21T10:07:00.330Z,5.90
2022-09-21T10:08:00.580Z,5.90
2022-09-21T10:09:00.305Z,5.90
2022-09-21T10:10:00.281Z,5.90
2022-09-21T10:11:00.442Z,5.90
2022-09-21T10:12:06.804Z,5.90
2022-09-21T10:13:04.672Z,5.90
2022-09-21T10:14:09.190Z,5.90
2022-09-21T10:15:00.326Z,5.90
2022-09-21T10:16:00.437Z,5.10
2022-09-21T10:17:04.527Z,5.10
2022-09-21T10:18:10.217Z,5.10
2022-09-21T10:19:00.392Z,5.10
2022-09-21T10:20:01.224Z,5.10
2022-09-21T10:21:02.188Z,5.10
2022-09-21T10:22:01.281Z,5.10
2022-09-21T10:23:00.290Z,5.10
2022-09-21T10:24:01.930Z,5.10
2022-09-21T10:25:00.526Z,5.10
2022-09-21T10:26:03.907Z,5.10
2022-09-21T10:27:05.000Z,5.10
2022-09-21T10:28:00.426Z,5.10
2022-09-21T10:29:02.012Z,5.10
2022-09-21T10:30:00.297Z,5.10
2022-09-21T10:31:09.355Z,5.10
2022-09-21T10:32:00.282Z,5.10
2022-09-21T10:33:00.445Z,5.10
2022-09-21T10:34:03.568Z,5.10
2022-09-21T10:35:01.801Z,5.10
2022-09-21T10:36:00.376Z,5.10
2022-09-21T10:37:01.396Z,5.10
2022-09-21T10:38:10.186Z,5.10
2022-09-21T10:39:10.204Z,5.10
2022-09-21T10:40:00.615Z,5.10
2022-09-21T10:41:00.304Z,5.10
2022-09-21T10:42:03.665Z,5.10
2022-09-21T10:43:00.332Z,5.10
2022-09-21T10:44:00.356Z,5.10
2022-09-21T10:45:10.211Z,5.10
2022-09-21T10:46:00.738Z,5.50
2022-09-21T10:47:02.893Z,5.50
2022-09-21T10:48:09.383Z,5.50
2022-09-21T10:49:01.581Z,5.50
2022-09-21T10:50:01.456Z,5.50
2022-09-21T10:51:01.435Z,5.50
2022-09-21T10:52:00.891Z,5.50
2022-09-21T10:53:10.184Z,5.50
2022-09-21T10:54:00.320Z,5.50
2022-09-21T10:55:00.522Z,5.50
2022-09-21T10:57:06.338Z,5.50
2022-09-21T10:58:00.326Z,5.50
2022-09-21T10:59:10.173Z,5.50
2022-09-21T11:00:10.230Z,5.50
2022-09-21T11:01:09.797Z,5.50
2022-09-21T11:02:01.241Z,5.50
2022-09-21T11:03:10.238Z,5.50
2022-09-21T11:04:01.287Z,5.50
2022-09-21T11:05:10.205Z,5.50
2022-09-21T11:06:10.193Z,5.50
2022-09-21T11:07:04.093Z,5.50
2022-09-21T11:08:10.170Z,5.50
2022-09-21T11:09:05.299Z,5.50
2022-09-21T11:10:08.638Z,5.50
2022-09-21T11:11:10.176Z,5.50
2022-09-21T11:12:06.098Z,5.50
2022-09-21T11:13:10.193Z,5.50
2022-09-21T11:14:10.206Z,5.50
2022-09-21T11:15:00.261Z,5.50
2022-09-21T11:16:03.378Z,5.10
2022-09-21T11:17:10.198Z,5.10
2022-09-21T11:18:01.300Z,5.10
2022-09-21T11:19:10.190Z,5.10
2022-09-21T11:20:10.193Z,5.10
2022-09-21T11:21:05.116Z,5.10
2022-09-21T11:22:10.191Z,5.10
2022-09-21T11:23:07.729Z,5.10
2022-09-21T11:24:00.262Z,5.10
2022-09-21T11:25:10.207Z,5.10
2022-09-21T11:26:10.176Z,5.10
2022-09-21T11:27:10.185Z,5.10
2022-09-21T11:28:08.788Z,5.10
2022-09-21T11:29:00.260Z,5.10
2022-09-21T11:30:01.281Z,5.10
2022-09-21T11:31:10.299Z,5.10
2022-09-21T11:32:07.406Z,5.10
2022-09-21T11:33:10.176Z,5.10
2022-09-21T11:34:10.198Z,5.10
2022-09-21T11:35:01.280Z,5.10
2022-09-21T11:36:01.286Z,5.10
2022-09-21T11:37:10.192Z,5.10
2022-09-21T11:38:10.178Z,5.10
2022-09-21T11:39:10.172Z,5.10
2022-09-21T11:40:10.226Z,5.10
2022-09-21T11:41:10.175Z,5.10
2022-09-21T11:42:10.173Z,5.10
2022-09-21T11:43:10.244Z,5.10
2022-09-21T11:44:02.166Z,5.10
2022-09-21T11:45:01.497Z,5.10
2022-09-21T11:46:03.592Z,4.20
2022-09-21T11:47:10.204Z,4.20
2022-09-21T11:48:10.177Z,4.20
2022-09-21T11:49:01.321Z,4.20
2022-09-21T11:50:26.293Z,4.20
2022-09-21T11:51:03.544Z,4.20
2022-09-21T11:52:10.179Z,4.20
2022-09-21T11:53:10.197Z,4.20
2022-09-21T11:54:10.186Z,4.20
2022-09-21T11:55:00.280Z,4.20
2022-09-21T11:56:08.280Z,4.20
2022-09-21T11:57:01.319Z,4.20
2022-09-21T11:58:06.988Z,4.20
2022-09-21T11:59:09.250Z,4.20
2022-09-21T12:00:09.237Z,4.20
2022-09-21T12:01:05.545Z,4.20
2022-09-21T12:02:10.280Z,4.20
2022-09-21T12:03:10.167Z,4.20
2022-09-21T12:04:05.269Z,4.20
2022-09-21T12:05:10.219Z,4.20
2022-09-21T12:06:10.185Z,4.20
2022-09-21T12:07:07.970Z,4.20
2022-09-21T12:08:10.199Z,4.20
2022-09-21T12:09:00.261Z,4.20
2022-09-21T12:10:08.838Z,4.20
2022-09-21T12:11:01.261Z,4.20
2022-09-21T12:12:10.197Z,4.20
2022-09-21T12:13:05.929Z,4.20
2022-09-21T12:14:04.955Z,4.20
2022-09-21T12:15:00.368Z,4.20
2022-09-21T12:16:04.878Z,4.10
2022-09-21T12:17:05.621Z,4.10
2022-09-21T12:18:10.183Z,4.10
2022-09-21T12:19:07.740Z,4.10
2022-09-21T12:20:05.629Z,4.10
2022-09-21T12:21:09.968Z,4.10
2022-09-21T12:22:07.089Z,4.10
2022-09-21T12:23:03.560Z,4.10
2022-09-21T12:24:03.342Z,4.10
2022-09-21T12:25:10.206Z,4.10
2022-09-21T12:26:01.116Z,4.10
2022-09-21T12:27:03.047Z,4.10
2022-09-21T12:28:01.388Z,4.10
2022-09-21T12:29:02.179Z,4.10
2022-09-21T12:30:05.826Z,4.10
2022-09-21T12:31:03.166Z,4.10
2022-09-21T12:32:10.199Z,4.10
2022-09-21T12:33:09.033Z,4.10
2022-09-21T12:34:03.785Z,4.10
2022-09-21T12:35:03.178Z,4.10
2022-09-21T12:36:06.751Z,4.10
2022-09-21T12:37:06.401Z,4.10
2022-09-21T12:38:01.254Z,4.10
2022-09-21T12:39:04.642Z,4.10
2022-09-21T12:40:00.366Z,4.10
2022-09-21T12:41:00.303Z,4.10
2022-09-21T12:42:10.182Z,4.10
2022-09-21T12:43:04.723Z,4.10
2022-09-21T12:44:00.265Z,4.10
2022-09-21T12:45:01.323Z,4.10
2022-09-21T12:46:02.427Z,3.90
2022-09-21T12:47:05.946Z,3.90
2022-09-21T12:48:05.859Z,3.90
2022-09-21T12:49:04.580Z,3.90
2022-09-21T12:50:05.151Z,3.90
2022-09-21T12:51:05.083Z,3.90
2022-09-21T12:52:02.419Z,3.90
2022-09-21T12:53:00.748Z,3.90
2022-09-21T12:54:05.615Z,3.90
2022-09-21T12:55:03.688Z,3.90
2022-09-21T12:56:09.516Z,3.90
2022-09-21T12:57:00.266Z,3.90
2022-09-21T12:58:15.504Z,3.90
2022-09-21T12:59:08.013Z,3.90
2022-09-21T13:00:07.696Z,3.90
2022-09-21T13:01:09.892Z,3.90
2022-09-21T13:02:00.363Z,3.90
2022-09-21T13:03:00.250Z,3.90
2022-09-21T13:04:10.222Z,3.90
2022-09-21T13:05:03.559Z,3.90
2022-09-21T13:06:00.248Z,3.90
2022-09-21T13:07:10.179Z,3.90
2022-09-21T13:08:03.622Z,3.90
2022-09-21T13:09:01.011Z,3.90
2022-09-21T13:10:06.361Z,3.90
2022-09-21T13:11:00.735Z,3.90
2022-09-21T13:12:07.074Z,3.90
2022-09-21T13:13:02.185Z,3.90
2022-09-21T13:14:01.956Z,3.90
2022-09-21T13:15:02.803Z,3.90
2022-09-21T13:16:00.893Z,4.20
2022-09-21T13:17:01.667Z,4.20
2022-09-21T13:18:02.492Z,4.20
2022-09-21T13:19:02.779Z,4.20
2022-09-21T13:20:03.086Z,4.20
2022-09-21T13:21:01.229Z,4.20